Skip to content
You are here: Gozo Weather
Gozo Weather Station for the very latest live weather conditions from Gozo and Malta
 
 TIME   TEMPERATURE   WINDSPEED   DIRECTION   HUMIDITY   BAROMETER   RAINFALL 
2:50 22.7°C (72.9°F) 0.0 kmh (0.0 mph) SW 71% 1019.0hPa (30.09 inHg) 0.0mm (0.00 in.)
1:50 22.9°C (73.2 °F) 11.1 kmh (6.9 mph) NNE 70% 1020.0hPa (30.12 inHg) 0.0mm (0.00 in.)
12:50 23.0°C (73.4 °F) 0.0 kmh (0.0 mph) NNE 71% 1020.0hPa (30.12 inHg) 0.0mm (0.00 in.)
11:50 23.1°C (73.6 °F) 0.0 kmh (0.0 mph) NE 72% 1020.0hPa (30.12 inHg) 0.0mm (0.00 in.)
10:44 23.1°C (73.6 °F) 0.0 kmh (0.0 mph) S 71% 1020.0hPa (30.12 inHg) 0.0mm (0.00 in.)
9:44 23.6°C (74.5 °F) 14.8 kmh (9.2 mph) NNE 66% 1019.3hPa (30.10 inHg) 0.0mm (0.00 in.)
8:44 25.1°C (77.2 °F) 13.0 kmh (8.1 mph) SSE 61% 1019.0hPa (30.09 inHg) 0.0mm (0.00 in.)
7:44 25.7°C (78.3 °F) 14.8 kmh (9.2 mph) NNE 57% 1019.0hPa (30.09 inHg) 0.0mm (0.00 in.)
6:38 26.2°C (79.2 °F) 7.4 kmh (4.6 mph) WNW 55% 1018.0hPa (30.06 inHg) 0.0mm (0.00 in.)
5:38 27.5°C (81.5 °F) 14.8 kmh (9.2 mph) W 54% 1018.0hPa (30.06 inHg) 0.0mm (0.00 in.)
4:38 27.8°C (82.0 °F) 13.0 kmh (8.1 mph) NNW 53% 1019.0hPa (30.09 inHg) 0.0mm (0.00 in.)
3:38 28.4°C (83.1 °F) 5.6 kmh (3.5 mph) W 45% 1019.0hPa (30.09 inHg) 0.0mm (0.00 in.)
2:38 29.4°C (84.9 °F) 16.7 kmh (10.4 mph) NW 51% 1019.0hPa (30.09 inHg) 0.0mm (0.00 in.)
1:38 28.1°C (82.6 °F) 14.8 kmh (9.2 mph) W 61% 1019.0hPa (30.09 inHg) 0.0mm (0.00 in.)
12:38 27.3°C (81.1 °F) 0.0 kmh (0.0 mph) WNW 64% 1020.0hPa (30.12 inHg) 0.0mm (0.00 in.)
11:31 26.7°C (80.1 °F) 13.0 kmh (8.1 mph) NW 66% 1020.0hPa (30.12 inHg) 0.0mm (0.00 in.)
10:31 24.8°C (76.6 °F) 5.6 kmh (3.5 mph) S 68% 1019.0hPa (30.09 inHg) 0.0mm (0.00 in.)
9:31 24.0°C (75.2 °F) 0.0 kmh (0.0 mph) W 74% 1019.0hPa (30.09 inHg) 0.0mm (0.00 in.)
8:31 23.0°C (73.4 °F) 0.0 kmh (0.0 mph) NW 76% 1019.0hPa (30.09 inHg) 0.0mm (0.00 in.)
7:31 22.0°C (71.6 °F) 0.0 kmh (0.0 mph) NNE 76% 1018.0hPa (30.06 inHg) 0.0mm (0.00 in.)
6:31 22.0°C (71.6 °F) 0.0 kmh (0.0 mph) NNE 76% 1018.0hPa (30.06 inHg) 0.0mm (0.00 in.)
5:31 22.0°C (71.6 °F) 0.0 kmh (0.0 mph) NNE 75% 1018.0hPa (30.06 inHg) 0.0mm (0.00 in.)
4:31 22.2°C (72.0 °F) 14.8 kmh (9.2 mph) NNE 74% 1018.0hPa (30.06 inHg) 0.0mm (0.00 in.)
3:31 22.4°C (72.3 °F) 14.8 kmh (9.2 mph) NE 73% 1018.0hPa (30.06 inHg) 0.0mm (0.00 in.)

You need the latest version of Flash Player to view some of our content.


Why not download and install the latest version now?
It will only take you a moment and will ensure that you can view all the latest flash designed websites.

Translate this page

Animated Satellite

Click per aprire http://www.gozo.ws/Animation.php
copyright 2015 EUMETSAT

European Lightning Activity


Please click image for full size

Sponsored Links